Startpagina
METAR-TAF:

METAR-TAF

Vliegvelden :

Harbin, China

breedte: 45-45N, lengte: 126-46E, hoogte: 143 m

Actueel weer

Dit bericht is 56 minuten geleden gemaakt, om 12:00 UTC
Wind 10 kt uit het zuidwesten
Temperatuur -9°C
Vochtigheid 57%
Druk 1012 hPa
Zicht 10 km of meer
geen wolken onder 1500 m en geen cumulonimbus

METAR: ZYHB 221200Z 22005MPS CAVOK M09/M16 Q1012 NOSIG

Tijdstip: 20:56 (12:56 UTC)

Verwachting

Dit bericht is 3 uur en het 26 minuten geleden gemaakt, om 09:30 UTC
Verwachting geldig van 22 om 12 UTC tot 23 om 12 UTC
Wind 8 kt uit het westzuidwesten
Zicht: 6000 m
Verspreide wolken op 3000 ft

TAF: ZYHB 220930Z 2212/2312 24004MPS 6000 SCT030 TXM08/06Z TNM17/22Z

Waarnemingen en weersverwachtingen van meer dan 4000 vliegvelden (METAR en TAF).

De beschikbare stations zijn de gele en rode punten op de kaart.

Ga met uw muis naar het station om de naam te zien.

Klik dan om waarnemingen en weersverwachtingen te zien.

kaart wijzigen: klik op de groene knoppen met een zwart kruis om in te zoomen, op de groene knop met een streepje om uit te zoomen of op de groene pijlen voor aangrenzende kaarten.


METAR-TAF: